Edzard Schulte — 2CVX9 — position and weather

sailwx.info

Track history (hours):
 
Tides and Currents Weather Stations Pressure Air Temp Water Temp Dewpoint Dewpoint Depression Visibility Wind Speed Wind Dir Waves Ship Positions

Edzard Schulte

Last reported at 2015-Jan-09 23:08 UTC. Time now 2015-Jan-26 10:26 UTC.
Position N 48°14' W 125°21'.
Warning: this ship's position is 16 days out of date.

Length 145 m; draft 8.9 m.

Type: Tanker. MMSI: 235076245.

Date/timePositionNaut miles runAvg speedWind from/ knotsBaromVisibWave heightAir tempDewpointWater temp
2015-Jan-09 23:08N 48°14' W 125°21'711.1
2015-Jan-09 22:32N 48°19' W 125°14'1111.2
2015-Jan-09 21:34N 48°28' W 125°04'1110.7
2015-Jan-09 20:34N 48°31' W 124°48'1313.1
2015-Jan-09 19:33N 48°27' W 124°30'1413.5
2015-Jan-09 18:33N 48°22' W 124°11'1313.1
2015-Jan-09 17:33N 48°17' W 123°52'1212.4
2015-Jan-09 16:33N 48°15' W 123°34'1010.4
2015-Jan-09 15:33N 48°23' W 123°23'8 8.3
2015-Jan-09 14:33N 48°27' W 123°12'1010.0
2015-Jan-09 13:34N 48°37' W 123°14'8 7.6
2015-Jan-09 12:33N 48°44' W 123°10'8 8.0
2015-Jan-09 11:33N 48°50' W 123°02'1110.6
2015-Jan-09 10:33N 48°58' W 123°14'1111.1
2015-Jan-09 09:33N 49°06' W 123°25'1110.9
2015-Jan-09 08:34N 49°16' W 123°20'9 8.8
2015-Jan-09 07:33N 49°19' W 123°07'2 2.3
2015-Jan-09 06:31N 49°17' W 123°04'0 0.0
2015-Jan-09 05:31N 49°17' W 123°04'0 0.0
2015-Jan-09 04:31N 49°17' W 123°04'0 0.0
2015-Jan-09 03:31N 49°17' W 123°04'0 0.0
2015-Jan-09 02:31N 49°17' W 123°04'0 0.0
2015-Jan-09 01:31N 49°17' W 123°04'0 0.0
2015-Jan-09 00:31N 49°17' W 123°04'0 0.0
2015-Jan-08 22:31N 49°17' W 123°04'0 0.0
2015-Jan-08 21:31N 49°17' W 123°04'0 0.0
2015-Jan-08 20:31N 49°17' W 123°04'0 0.0
2015-Jan-08 19:31N 49°17' W 123°04'0 0.0
2015-Jan-08 18:31N 49°17' W 123°04'0 0.0
2015-Jan-08 17:31N 49°17' W 123°04'0 0.0
2015-Jan-08 16:31N 49°17' W 123°04'0 0.0
2015-Jan-08 15:31N 49°17' W 123°04'0 0.0
2015-Jan-08 14:31N 49°17' W 123°04'0 0.0
2015-Jan-08 13:31N 49°17' W 123°04'0 0.0
2015-Jan-08 12:31N 49°17' W 123°04'0 0.0
2015-Jan-08 11:31N 49°17' W 123°04'0 0.0
2015-Jan-08 10:31N 49°17' W 123°04'0 0.0
2015-Jan-08 09:31N 49°17' W 123°04'0 0.0
2015-Jan-08 08:31N 49°17' W 123°04'0 0.0
2015-Jan-08 07:31N 49°17' W 123°04'0 0.0
2015-Jan-08 06:31N 49°17' W 123°04'0 0.0
2015-Jan-08 05:31N 49°17' W 123°04'0 0.0
2015-Jan-08 04:31N 49°17' W 123°04'0 0.0
2015-Jan-08 03:49N 49°17' W 123°04'5 0.7
2015-Jan-07 20:33N 49°18' W 122°56'0 0.0
2015-Jan-07 19:30N 49°18' W 122°56'0 0.1
2015-Jan-07 18:31N 49°18' W 122°56'0 0.0
2015-Jan-07 17:33N 49°18' W 122°56'0 0.1
2015-Jan-07 16:33N 49°18' W 122°56'0 0.0
2015-Jan-07 15:33N 49°18' W 122°56'0 0.0
2015-Jan-07 14:33N 49°18' W 122°56'0 0.0
2015-Jan-07 13:33N 49°18' W 122°56'0 0.1
2015-Jan-07 12:33N 49°18' W 122°56'0 0.0
2015-Jan-07 11:33N 49°18' W 122°56'0 0.1
2015-Jan-07 10:31N 49°18' W 122°56'0 0.0
2015-Jan-07 09:33N 49°18' W 122°56'0 0.1
2015-Jan-07 08:33N 49°18' W 122°56'0 0.0
2015-Jan-07 07:30N 49°18' W 122°56'0 0.0
2015-Jan-07 06:27N 49°18' W 122°56'0 0.0
2015-Jan-07 05:33N 49°18' W 122°56'0 0.0
2015-Jan-07 04:30N 49°18' W 122°56'0 0.0
2015-Jan-07 03:33N 49°18' W 122°56'0 0.1
2015-Jan-07 02:33N 49°18' W 122°56'0 0.0
2015-Jan-07 01:33N 49°18' W 122°56'0 0.1
2015-Jan-07 00:33N 49°18' W 122°56'0 0.1
2015-Jan-06 23:33N 49°18' W 122°56'0 0.1
2015-Jan-06 22:30N 49°18' W 122°56'0 0.1
2015-Jan-06 21:33N 49°18' W 122°56'0 0.1
2015-Jan-06 20:33N 49°18' W 122°56'0 0.0
2015-Jan-06 19:33N 49°18' W 122°56'0 0.1
2015-Jan-06 18:30N 49°18' W 122°56'0 0.1
2015-Jan-06 17:33N 49°18' W 122°56'0 0.0
2015-Jan-06 16:33N 49°18' W 122°56'0 0.1
2015-Jan-06 15:33N 49°18' W 122°56'0 0.0
2015-Jan-06 14:30N 49°18' W 122°56'0 0.0
2015-Jan-06 13:33N 49°18' W 122°56'0 0.0
2015-Jan-06 12:33N 49°18' W 122°56'0 0.1
2015-Jan-06 11:33N 49°18' W 122°56'0 0.0
2015-Jan-06 10:33N 49°18' W 122°56'0 0.1
2015-Jan-06 09:33N 49°18' W 122°56'0 0.1
2015-Jan-06 08:33N 49°18' W 122°56'0 0.0
2015-Jan-06 07:33N 49°18' W 122°56'0 0.0
2015-Jan-06 06:33N 49°18' W 122°56'0 0.0
2015-Jan-06 05:30N 49°18' W 122°56'0 0.1
2015-Jan-06 04:33N 49°18' W 122°56'0 0.1
2015-Jan-06 03:33N 49°18' W 122°56'0 0.0
2015-Jan-06 02:33N 49°18' W 122°56'2 1.6
2015-Jan-06 01:32N 49°17' W 122°54'0 0.0
2015-Jan-06 00:32N 49°17' W 122°54'0 0.0
2015-Jan-05 23:32N 49°17' W 122°54'0 0.0
2015-Jan-05 22:32N 49°17' W 122°54'0 0.0
2015-Jan-05 21:32N 49°17' W 122°54'0 0.0
2015-Jan-05 20:32N 49°17' W 122°54'0 0.0
2015-Jan-05 19:32N 49°17' W 122°54'0 0.0
2015-Jan-05 18:32N 49°17' W 122°54'0 0.0
2015-Jan-05 17:32N 49°17' W 122°54'0 0.0
2015-Jan-05 16:32N 49°17' W 122°54'0 0.0
2015-Jan-05 15:32N 49°17' W 122°54'0 0.0
2015-Jan-05 14:32N 49°17' W 122°54'0 0.0
2015-Jan-05 13:32N 49°17' W 122°54'0 0.0
2015-Jan-05 12:32N 49°17' W 122°54'0 0.0
2015-Jan-05 11:32N 49°17' W 122°54'0 0.0
2015-Jan-05 10:32N 49°17' W 122°54'0 0.0
2015-Jan-05 09:32N 49°17' W 122°54'0 0.0
2015-Jan-05 08:32N 49°17' W 122°54'0 0.0
2015-Jan-05 07:32N 49°17' W 122°54'0 0.0
2015-Jan-05 06:32N 49°17' W 122°54'0 0.0
2015-Jan-05 05:32N 49°17' W 122°54'0 0.0
2015-Jan-05 04:29N 49°17' W 122°54'0 0.0
2015-Jan-05 03:32N 49°17' W 122°54'0 0.0
2015-Jan-05 02:32N 49°17' W 122°54'0 0.0
2015-Jan-05 01:32N 49°17' W 122°54'3 3.1
2015-Jan-05 00:34N 49°18' W 122°58'7 7.0
2015-Jan-04 23:34N 49°19' W 123°09'8 7.6
2015-Jan-04 22:34N 49°15' W 123°19'1312.9
2015-Jan-04 21:34N 49°02' W 123°18'1414.4
2015-Jan-04 20:34N 48°52' W 123°03'10 9.7
2015-Jan-04 19:33N 48°43' W 123°09'1110.9
2015-Jan-04 18:33N 48°32' W 123°12'1010.5
2015-Jan-04 17:33N 48°23' W 123°17'6 6.1
2015-Jan-04 16:33N 48°19' W 123°25'9 8.5
2015-Jan-04 15:33N 48°13' W 123°34'1010.4
2015-Jan-04 14:33N 48°13' W 123°50'1010.2
2015-Jan-04 13:33N 48°16' W 124°05'1010.5
2015-Jan-04 12:33N 48°21' W 124°19'1110.6
2015-Jan-04 11:33N 48°25' W 124°33'1110.6
2015-Jan-04 10:33N 48°28' W 124°48'1010.0
2015-Jan-04 09:33N 48°25' W 125°03'1211.7
2015-Jan-04 08:30N 48°14' W 125°10'12611.2
2015-Jan-03 21:18N 46°08' W 125°19'  
Track history (hours):
 
Tides and Currents Weather Stations Pressure Air Temp Water Temp Dewpoint Dewpoint Depression Visibility Wind Speed Wind Dir Waves Ship Positions

Edzard Schulte

Last reported at 2015-Jan-09 23:08 UTC. Time now 2015-Jan-26 10:26 UTC.
Position N 48°14' W 125°21'.
Warning: this ship's position is 16 days out of date.

Length 145 m; draft 8.9 m.

Type: Tanker. MMSI: 235076245.

Date/timePositionNaut miles runAvg speedWind from/ knotsBaromVisibWave heightAir tempDewpointWater temp
2015-Jan-09 23:08N 48°14' W 125°21'711.1
2015-Jan-09 22:32N 48°19' W 125°14'1111.2
2015-Jan-09 21:34N 48°28' W 125°04'1110.7
2015-Jan-09 20:34N 48°31' W 124°48'1313.1
2015-Jan-09 19:33N 48°27' W 124°30'1413.5
2015-Jan-09 18:33N 48°22' W 124°11'1313.1
2015-Jan-09 17:33N 48°17' W 123°52'1212.4
2015-Jan-09 16:33N 48°15' W 123°34'1010.4
2015-Jan-09 15:33N 48°23' W 123°23'8 8.3
2015-Jan-09 14:33N 48°27' W 123°12'1010.0
2015-Jan-09 13:34N 48°37' W 123°14'8 7.6
2015-Jan-09 12:33N 48°44' W 123°10'8 8.0
2015-Jan-09 11:33N 48°50' W 123°02'1110.6
2015-Jan-09 10:33N 48°58' W 123°14'1111.1
2015-Jan-09 09:33N 49°06' W 123°25'1110.9
2015-Jan-09 08:34N 49°16' W 123°20'9 8.8
2015-Jan-09 07:33N 49°19' W 123°07'2 2.3
2015-Jan-09 06:31N 49°17' W 123°04'0 0.0
2015-Jan-09 05:31N 49°17' W 123°04'0 0.0
2015-Jan-09 04:31N 49°17' W 123°04'0 0.0
2015-Jan-09 03:31N 49°17' W 123°04'0 0.0
2015-Jan-09 02:31N 49°17' W 123°04'0 0.0
2015-Jan-09 01:31N 49°17' W 123°04'0 0.0
2015-Jan-09 00:31N 49°17' W 123°04'0 0.0
2015-Jan-08 22:31N 49°17' W 123°04'0 0.0
2015-Jan-08 21:31N 49°17' W 123°04'0 0.0
2015-Jan-08 20:31N 49°17' W 123°04'0 0.0
2015-Jan-08 19:31N 49°17' W 123°04'0 0.0
2015-Jan-08 18:31N 49°17' W 123°04'0 0.0
2015-Jan-08 17:31N 49°17' W 123°04'0 0.0
2015-Jan-08 16:31N 49°17' W 123°04'0 0.0
2015-Jan-08 15:31N 49°17' W 123°04'0 0.0
2015-Jan-08 14:31N 49°17' W 123°04'0 0.0
2015-Jan-08 13:31N 49°17' W 123°04'0 0.0
2015-Jan-08 12:31N 49°17' W 123°04'0 0.0
2015-Jan-08 11:31N 49°17' W 123°04'0 0.0
2015-Jan-08 10:31N 49°17' W 123°04'0 0.0
2015-Jan-08 09:31N 49°17' W 123°04'0 0.0
2015-Jan-08 08:31N 49°17' W 123°04'0 0.0
2015-Jan-08 07:31N 49°17' W 123°04'0 0.0
2015-Jan-08 06:31N 49°17' W 123°04'0 0.0
2015-Jan-08 05:31N 49°17' W 123°04'0 0.0
2015-Jan-08 04:31N 49°17' W 123°04'0 0.0
2015-Jan-08 03:49N 49°17' W 123°04'5 0.7
2015-Jan-07 20:33N 49°18' W 122°56'0 0.0
2015-Jan-07 19:30N 49°18' W 122°56'0 0.1
2015-Jan-07 18:31N 49°18' W 122°56'0 0.0
2015-Jan-07 17:33N 49°18' W 122°56'0 0.1
2015-Jan-07 16:33N 49°18' W 122°56'0 0.0
2015-Jan-07 15:33N 49°18' W 122°56'0 0.0
2015-Jan-07 14:33N 49°18' W 122°56'0 0.0
2015-Jan-07 13:33N 49°18' W 122°56'0 0.1
2015-Jan-07 12:33N 49°18' W 122°56'0 0.0
2015-Jan-07 11:33N 49°18' W 122°56'0 0.1
2015-Jan-07 10:31N 49°18' W 122°56'0 0.0
2015-Jan-07 09:33N 49°18' W 122°56'0 0.1
2015-Jan-07 08:33N 49°18' W 122°56'0 0.0
2015-Jan-07 07:30N 49°18' W 122°56'0 0.0
2015-Jan-07 06:27N 49°18' W 122°56'0 0.0
2015-Jan-07 05:33N 49°18' W 122°56'0 0.0
2015-Jan-07 04:30N 49°18' W 122°56'0 0.0
2015-Jan-07 03:33N 49°18' W 122°56'0 0.1
2015-Jan-07 02:33N 49°18' W 122°56'0 0.0
2015-Jan-07 01:33N 49°18' W 122°56'0 0.1
2015-Jan-07 00:33N 49°18' W 122°56'0 0.1
2015-Jan-06 23:33N 49°18' W 122°56'0 0.1
2015-Jan-06 22:30N 49°18' W 122°56'0 0.1
2015-Jan-06 21:33N 49°18' W 122°56'0 0.1
2015-Jan-06 20:33N 49°18' W 122°56'0 0.0
2015-Jan-06 19:33N 49°18' W 122°56'0 0.1
2015-Jan-06 18:30N 49°18' W 122°56'0 0.1
2015-Jan-06 17:33N 49°18' W 122°56'0 0.0
2015-Jan-06 16:33N 49°18' W 122°56'0 0.1
2015-Jan-06 15:33N 49°18' W 122°56'0 0.0
2015-Jan-06 14:30N 49°18' W 122°56'0 0.0
2015-Jan-06 13:33N 49°18' W 122°56'0 0.0
2015-Jan-06 12:33N 49°18' W 122°56'0 0.1
2015-Jan-06 11:33N 49°18' W 122°56'0 0.0
2015-Jan-06 10:33N 49°18' W 122°56'0 0.1
2015-Jan-06 09:33N 49°18' W 122°56'0 0.1
2015-Jan-06 08:33N 49°18' W 122°56'0 0.0
2015-Jan-06 07:33N 49°18' W 122°56'0 0.0
2015-Jan-06 06:33N 49°18' W 122°56'0 0.0
2015-Jan-06 05:30N 49°18' W 122°56'0 0.1
2015-Jan-06 04:33N 49°18' W 122°56'0 0.1
2015-Jan-06 03:33N 49°18' W 122°56'0 0.0
2015-Jan-06 02:33N 49°18' W 122°56'2 1.6
2015-Jan-06 01:32N 49°17' W 122°54'0 0.0
2015-Jan-06 00:32N 49°17' W 122°54'0 0.0
2015-Jan-05 23:32N 49°17' W 122°54'0 0.0
2015-Jan-05 22:32N 49°17' W 122°54'0 0.0
2015-Jan-05 21:32N 49°17' W 122°54'0 0.0
2015-Jan-05 20:32N 49°17' W 122°54'0 0.0
2015-Jan-05 19:32N 49°17' W 122°54'0 0.0
2015-Jan-05 18:32N 49°17' W 122°54'0 0.0
2015-Jan-05 17:32N 49°17' W 122°54'0 0.0
2015-Jan-05 16:32N 49°17' W 122°54'0 0.0
2015-Jan-05 15:32N 49°17' W 122°54'0 0.0
2015-Jan-05 14:32N 49°17' W 122°54'0 0.0
2015-Jan-05 13:32N 49°17' W 122°54'0 0.0
2015-Jan-05 12:32N 49°17' W 122°54'0 0.0
2015-Jan-05 11:32N 49°17' W 122°54'0 0.0
2015-Jan-05 10:32N 49°17' W 122°54'0 0.0
2015-Jan-05 09:32N 49°17' W 122°54'0 0.0
2015-Jan-05 08:32N 49°17' W 122°54'0 0.0
2015-Jan-05 07:32N 49°17' W 122°54'0 0.0
2015-Jan-05 06:32N 49°17' W 122°54'0 0.0
2015-Jan-05 05:32N 49°17' W 122°54'0 0.0
2015-Jan-05 04:29N 49°17' W 122°54'0 0.0
2015-Jan-05 03:32N 49°17' W 122°54'0 0.0
2015-Jan-05 02:32N 49°17' W 122°54'0 0.0
2015-Jan-05 01:32N 49°17' W 122°54'3 3.1
2015-Jan-05 00:34N 49°18' W 122°58'7 7.0
2015-Jan-04 23:34N 49°19' W 123°09'8 7.6
2015-Jan-04 22:34N 49°15' W 123°19'1312.9
2015-Jan-04 21:34N 49°02' W 123°18'1414.4
2015-Jan-04 20:34N 48°52' W 123°03'10 9.7
2015-Jan-04 19:33N 48°43' W 123°09'1110.9
2015-Jan-04 18:33N 48°32' W 123°12'1010.5
2015-Jan-04 17:33N 48°23' W 123°17'6 6.1
2015-Jan-04 16:33N 48°19' W 123°25'9 8.5
2015-Jan-04 15:33N 48°13' W 123°34'1010.4
2015-Jan-04 14:33N 48°13' W 123°50'1010.2
2015-Jan-04 13:33N 48°16' W 124°05'1010.5
2015-Jan-04 12:33N 48°21' W 124°19'1110.6
2015-Jan-04 11:33N 48°25' W 124°33'1110.6
2015-Jan-04 10:33N 48°28' W 124°48'1010.0
2015-Jan-04 09:33N 48°25' W 125°03'1211.7
2015-Jan-04 08:30N 48°14' W 125°10'12611.2
2015-Jan-03 21:18N 46°08' W 125°19'  

Dump ship's entire track history